Time;durP1;ratioP1;P1;durP2;ratioP2;P2;SDS_P1;SDS_P2;PMS_P1;PMS_P2;Temp;Humidity;BMP_temperature;BMP_pressure;BME280_temperature;BME280_humidity;BME280_pressure;Samples;Min_cycle;Max_cycle;Signal;HPM_P1;HPM_P2
2023/04/21 00:01:12;;;;;;;;;40.75;38.50;;;;;9.44;57.58;99061.38;5068352;28;8825;-74
2023/04/21 00:03:41;;;;;;;;;39.25;36.50;;;;;9.61;57.14;99059.28;5087506;28;8869;-73
2023/04/21 00:06:12;;;;;;;;;44.75;38.50;;;;;10.04;55.93;99061.69;5052729;28;8900;-74
2023/04/21 00:08:40;;;;;;;;;48.75;39.50;;;;;10.23;55.23;99054.16;5087193;28;8878;-74
2023/04/21 00:11:09;;;;;;;;;47.75;41.50;;;;;10.50;54.22;99052.53;5087718;28;8858;-74
2023/04/21 00:13:38;;;;;;;;;52.00;45.00;;;;;10.66;53.69;99050.34;5069577;28;9012;-75
2023/04/21 00:16:07;;;;;;;;;57.75;45.75;;;;;10.87;53.00;99044.44;5053176;28;8857;-74
2023/04/21 00:18:36;;;;;;;;;52.00;44.25;;;;;11.02;52.62;99043.13;5096210;28;8843;-75
2023/04/21 00:21:05;;;;;;;;;61.50;48.75;;;;;11.15;52.46;99046.25;5117381;28;8883;-74
2023/04/21 00:23:35;;;;;;;;;57.75;46.75;;;;;11.31;52.03;99043.97;5108067;28;8847;-75
2023/04/21 00:26:04;;;;;;;;;57.75;45.50;;;;;11.36;51.63;99048.19;5089458;28;8882;-75
2023/04/21 00:28:33;;;;;;;;;59.50;48.75;;;;;11.45;51.17;99035.66;5089596;28;9561;-74
2023/04/21 00:31:02;;;;;;;;;57.75;48.25;;;;;11.49;51.21;99045.16;5078726;28;8826;-73
2023/04/21 00:33:30;;;;;;;;;59.50;48.50;;;;;11.45;50.94;99048.81;5069304;28;8896;-77
2023/04/21 00:35:59;;;;;;;;;57.75;47.50;;;;;11.47;51.01;99039.09;5035684;28;8858;-74
2023/04/21 00:38:28;;;;;;;;;55.00;46.00;;;;;11.50;50.77;99036.34;5085829;28;8872;-74
2023/04/21 00:40:58;;;;;;;;;55.25;45.50;;;;;11.52;50.52;99042.41;5052651;28;8868;-73
2023/04/21 00:43:27;;;;;;;;;56.50;46.00;;;;;11.43;50.89;99048.84;5052041;28;8854;-73
2023/04/21 00:45:56;;;;;;;;;51.25;44.00;;;;;11.49;50.49;99038.13;5087045;28;8903;-74
2023/04/21 00:48:24;;;;;;;;;56.50;47.00;;;;;11.52;50.55;99045.03;5069136;28;9001;-74
2023/04/21 00:50:53;;;;;;;;;57.50;48.25;;;;;11.53;50.21;99038.88;5068948;28;8834;-74
2023/04/21 00:53:22;;;;;;;;;55.75;44.00;;;;;11.53;50.62;99036.25;5052558;28;8849;-74
2023/04/21 00:55:51;;;;;;;;;56.00;46.25;;;;;11.53;50.11;99044.16;5068854;28;8849;-74
2023/04/21 00:58:21;;;;;;;;;53.00;43.25;;;;;11.53;50.22;99042.38;5052401;28;8838;-74
2023/04/21 01:00:50;;;;;;;;;56.00;44.50;;;;;11.50;50.57;99045.13;5058389;28;9734;-74
2023/04/21 01:03:19;;;;;;;;;53.25;43.75;;;;;11.51;50.46;99045.97;5058135;28;8843;-73
2023/04/21 01:05:48;;;;;;;;;49.00;41.50;;;;;11.51;50.20;99041.56;5093119;28;8828;-75
2023/04/21 01:08:17;;;;;;;;;55.00;44.50;;;;;11.52;50.26;99039.78;5092506;28;8989;-72
2023/04/21 01:10:46;;;;;;;;;50.00;40.50;;;;;11.44;50.24;99045.31;5103958;28;8934;-74
2023/04/21 01:13:14;;;;;;;;;53.25;44.75;;;;;11.42;50.32;99041.84;5081306;28;8878;-76
2023/04/21 01:15:45;;;;;;;;;47.75;43.00;;;;;11.43;50.49;99042.75;5093284;28;8846;-74
2023/04/21 01:18:14;;;;;;;;;54.50;44.75;;;;;11.40;50.14;99041.06;5082721;28;8946;-74
2023/04/21 01:20:43;;;;;;;;;55.25;44.00;;;;;11.31;50.33;99034.34;5089662;28;8853;-74
2023/04/21 01:23:13;;;;;;;;;53.50;43.75;;;;;11.32;50.62;99041.31;5083571;28;8872;-74
2023/04/21 01:25:42;;;;;;;;;56.50;46.00;;;;;11.26;50.55;99030.13;5092162;28;8843;-74
2023/04/21 01:28:11;;;;;;;;;54.75;46.00;;;;;11.24;50.59;99024.91;5092337;28;8847;-74
2023/04/21 01:30:40;;;;;;;;;51.75;45.50;;;;;11.24;50.30;99037.19;5091173;28;8878;-77
2023/04/21 01:33:09;;;;;;;;;53.75;45.50;;;;;11.23;50.26;99031.06;5053057;28;8970;-74
2023/04/21 01:35:38;;;;;;;;;54.75;46.50;;;;;11.20;50.42;99036.44;5083954;28;8882;-73
2023/04/21 01:38:08;;;;;;;;;54.50;44.25;;;;;11.17;50.55;99039.16;5078690;28;8863;-75
2023/04/21 01:40:40;;;;;;;;;55.50;44.25;;;;;11.14;50.66;99034.88;5080142;28;8844;-73
2023/04/21 01:43:09;;;;;;;;;54.00;42.25;;;;;11.06;50.78;99044.75;5074538;28;8841;-75
2023/04/21 01:45:38;;;;;;;;;57.00;45.00;;;;;11.05;51.03;99039.53;5051907;28;9011;-74
2023/04/21 01:48:07;;;;;;;;;55.25;45.25;;;;;11.01;50.83;99037.91;5093447;28;8848;-76
2023/04/21 01:50:36;;;;;;;;;50.25;43.25;;;;;10.97;50.94;99039.78;5071614;28;8867;-74
2023/04/21 01:53:05;;;;;;;;;53.75;44.25;;;;;10.94;51.26;99043.38;5087316;28;8847;-74
2023/04/21 01:55:35;;;;;;;;;51.25;41.50;;;;;10.91;51.14;99040.81;5092149;28;8878;-74
2023/04/21 01:58:10;;;;;;;;;54.25;43.75;;;;;10.91;51.16;99046.06;5082279;28;8869;-76
2023/04/21 02:00:39;;;;;;;;;53.25;42.50;;;;;10.90;51.46;99049.63;5072182;28;8842;-74
2023/04/21 02:03:07;;;;;;;;;53.00;44.25;;;;;10.90;51.58;99048.78;5089961;28;8888;-73
2023/04/21 02:05:36;;;;;;;;;53.75;42.75;;;;;10.91;51.17;99040.81;5077608;28;8884;-74
2023/04/21 02:08:06;;;;;;;;;53.75;44.25;;;;;10.88;51.48;99047.94;5072738;28;8947;-74
2023/04/21 02:10:35;;;;;;;;;46.50;40.75;;;;;10.78;51.60;99044.72;5071986;28;8842;-75
2023/04/21 02:13:03;;;;;;;;;51.25;43.75;;;;;10.77;51.59;99038.63;5076741;28;8876;-73
2023/04/21 02:15:34;;;;;;;;;51.25;43.50;;;;;10.80;51.70;99042.91;5091205;28;8859;-75
2023/04/21 02:18:03;;;;;;;;;58.75;47.50;;;;;10.75;51.71;99045.69;5091665;28;8952;-74
2023/04/21 02:20:32;;;;;;;;;54.50;45.25;;;;;10.70;52.00;99051.97;5091897;28;8827;-76
2023/04/21 02:23:01;;;;;;;;;49.50;42.25;;;;;10.68;51.94;99049.38;5109952;28;8863;-75
2023/04/21 02:25:30;;;;;;;;;57.50;46.00;;;;;10.60;52.24;99044.34;5091849;28;8870;-73
2023/04/21 02:27:58;;;;;;;;;56.75;45.00;;;;;10.58;52.65;99046.16;5089243;28;8900;-75
2023/04/21 02:30:28;;;;;;;;;50.75;43.00;;;;;10.59;52.34;99045.25;5038252;28;9583;-75
2023/04/21 02:32:58;;;;;;;;;57.00;45.50;;;;;10.56;52.93;99047.13;5070847;28;8841;-75
2023/04/21 02:35:27;;;;;;;;;56.50;45.75;;;;;10.58;52.61;99047.94;5070827;28;8838;-73
2023/04/21 02:37:58;;;;;;;;;54.00;45.25;;;;;10.54;52.36;99049.78;5070830;28;8886;-75
2023/04/21 02:40:27;;;;;;;;;52.50;44.50;;;;;10.48;53.10;99042.09;5054178;28;8878;-75
2023/04/21 02:42:56;;;;;;;;;55.50;45.75;;;;;10.33;53.45;99046.00;5087412;28;8938;-75
2023/04/21 02:45:26;;;;;;;;;55.25;45.00;;;;;10.34;53.46;99049.47;5087591;28;8930;-75
2023/04/21 02:47:54;;;;;;;;;57.50;46.75;;;;;10.34;53.21;99044.22;5089053;28;8923;-73
2023/04/21 02:50:25;;;;;;;;;55.75;45.75;;;;;10.25;54.12;99041.84;5070590;28;8841;-76
2023/04/21 02:52:54;;;;;;;;;61.50;49.75;;;;;10.28;53.57;99047.03;5053994;28;8834;-73
2023/04/21 02:55:23;;;;;;;;;54.25;44.75;;;;;10.32;53.62;99046.03;5053837;28;8892;-75
2023/04/21 02:57:52;;;;;;;;;44.25;39.50;;;;;10.33;53.40;99038.13;5090353;28;8855;-73
2023/04/21 03:00:23;;;;;;;;;55.00;45.50;;;;;10.36;53.21;99043.28;5090739;28;9002;-74
2023/04/21 03:02:53;;;;;;;;;56.50;45.25;;;;;10.26;53.98;99044.44;5109183;28;8879;-76
2023/04/21 03:05:22;;;;;;;;;44.75;40.25;;;;;10.30;53.66;99039.97;5108990;28;9002;-74
2023/04/21 03:07:52;;;;;;;;;55.75;47.00;;;;;9.82;55.58;99034.22;5090425;28;8871;-77
2023/04/21 03:10:21;;;;;;;;;60.50;48.25;;;;;10.02;54.95;99040.72;5090483;28;8895;-75
2023/04/21 03:12:50;;;;;;;;;59.00;48.50;;;;;10.12;54.51;99038.69;5090443;28;8836;-73
2023/04/21 03:15:19;;;;;;;;;57.75;46.75;;;;;10.15;54.38;99038.63;5108319;28;8852;-76
2023/04/21 03:17:48;;;;;;;;;61.00;49.00;;;;;10.01;55.02;99031.13;5090499;28;8843;-74
2023/04/21 03:20:18;;;;;;;;;61.75;50.75;;;;;10.05;54.73;99034.50;5089816;28;8867;-75
2023/04/21 03:22:47;;;;;;;;;55.75;46.75;;;;;9.66;56.39;99035.53;5090892;28;8874;-76
2023/04/21 03:25:18;;;;;;;;;65.75;53.75;;;;;9.78;55.91;99037.84;5108075;28;9024;-74
2023/04/21 03:27:46;;;;;;;;;61.75;49.25;;;;;9.59;56.75;99037.44;5073121;28;8856;-77
2023/04/21 03:30:15;;;;;;;;;57.50;47.75;;;;;9.72;56.08;99035.34;5055964;28;8863;-76
2023/04/21 03:32:44;;;;;;;;;60.00;48.25;;;;;9.74;56.05;99036.19;5090339;28;8851;-73
2023/04/21 03:35:13;;;;;;;;;61.25;47.75;;;;;9.85;55.52;99046.41;5090517;28;8852;-74
2023/04/21 03:37:42;;;;;;;;;60.25;49.25;;;;;9.94;55.30;99047.94;5072945;28;8886;-75
2023/04/21 03:40:11;;;;;;;;;64.50;50.75;;;;;10.01;55.09;99054.75;5089847;28;8847;-76
2023/04/21 03:42:42;;;;;;;;;60.25;49.25;;;;;10.07;55.09;99059.00;5090044;28;8974;-75
2023/04/21 03:45:11;;;;;;;;;60.50;48.00;;;;;10.04;54.94;99059.91;5089941;28;8836;-74
2023/04/21 03:47:39;;;;;;;;;60.00;47.75;;;;;10.06;54.95;99060.72;5064980;28;8863;-75
2023/04/21 03:50:09;;;;;;;;;57.50;47.50;;;;;10.07;55.03;99066.88;5049046;28;8940;-74
2023/04/21 03:52:38;;;;;;;;;75.00;58.33;;;;;10.11;54.68;99064.09;5079768;28;8902;-74
2023/04/21 03:55:10;;;;;;;;;61.00;49.50;;;;;10.07;55.18;99065.09;5067995;28;9017;-74
2023/04/21 03:57:41;;;;;;;;;76.00;60.25;;;;;9.99;55.17;99069.69;5031354;28;8863;-73
2023/04/21 04:00:11;;;;;;;;;59.25;48.00;;;;;9.85;55.75;99069.19;5048215;28;8894;-75
2023/04/21 04:02:40;;;;;;;;;64.00;51.50;;;;;8.91;59.17;99089.69;5063475;28;8864;-75
2023/04/21 04:05:10;;;;;;;;;72.75;59.25;;;;;9.15;58.69;99086.53;5065093;28;8832;-75
2023/04/21 04:07:38;;;;;;;;;47.75;42.25;;;;;9.30;57.93;99087.09;5064408;28;9597;-76
2023/04/21 04:10:08;;;;;;;;;59.75;48.25;;;;;9.42;57.43;99085.06;5064617;28;8937;-76
2023/04/21 04:12:36;;;;;;;;;56.25;46.50;;;;;9.40;57.77;99089.47;5011536;28;8840;-75
2023/04/21 04:15:09;;;;;;;;;62.50;47.25;;;;;9.41;57.95;99085.94;5044564;28;8841;-75
2023/04/21 04:17:38;;;;;;;;;57.75;46.50;;;;;9.45;57.88;99084.13;5044315;28;9591;-72
2023/04/21 04:20:08;;;;;;;;;63.75;50.25;;;;;9.56;57.53;99083.88;5044534;28;8844;-77
2023/04/21 04:22:37;;;;;;;;;73.50;56.50;;;;;9.56;57.36;99079.47;5044445;28;8931;-76
2023/04/21 04:25:06;;;;;;;;;59.25;48.25;;;;;9.42;57.78;99087.69;5053081;28;8901;-74
2023/04/21 04:27:35;;;;;;;;;53.50;43.75;;;;;9.21;58.84;99096.03;5067179;28;8885;-75
2023/04/21 04:30:05;;;;;;;;;59.25;50.50;;;;;8.82;60.23;99099.50;5049130;28;8870;-74
2023/04/21 04:32:36;;;;;;;;;60.50;50.50;;;;;8.54;61.60;99095.72;5066091;28;8865;-75
2023/04/21 04:35:06;;;;;;;;;56.00;47.00;;;;;8.98;60.25;99094.78;5067251;28;8842;-74
2023/04/21 04:37:36;;;;;;;;;59.25;49.75;;;;;8.69;61.28;99105.88;5068535;28;8862;-73
2023/04/21 04:40:09;;;;;;;;;66.50;50.50;;;;;8.47;62.04;99104.59;5069519;28;8842;-76
2023/04/21 04:42:38;;;;;;;;;41.75;36.50;;;;;8.34;62.27;99117.03;5071103;28;8850;-75
2023/04/21 04:45:09;;;;;;;;;59.50;48.75;;;;;8.39;62.16;99113.44;5002823;28;8843;-76
2023/04/21 04:47:40;;;;;;;;;56.00;46.75;;;;;8.82;60.88;99114.38;5069298;28;8862;-75
2023/04/21 04:50:09;;;;;;;;;52.75;44.50;;;;;9.12;59.75;99115.47;5071001;28;8889;-75
2023/04/21 04:52:38;;;;;;;;;60.75;49.00;;;;;9.06;59.92;99119.97;5050073;28;8879;-74
2023/04/21 04:55:08;;;;;;;;;58.00;47.25;;;;;9.52;58.76;99111.94;5049517;28;8879;-74
2023/04/21 04:57:36;;;;;;;;;59.50;48.25;;;;;9.39;58.70;99124.47;5050650;28;8880;-75
2023/04/21 05:00:07;;;;;;;;;59.50;49.25;;;;;9.46;58.69;99121.69;5048846;28;9599;-76
2023/04/21 05:02:36;;;;;;;;;57.25;47.50;;;;;9.69;57.86;99116.81;5032607;28;8893;-74
2023/04/21 05:05:07;;;;;;;;;63.75;49.50;;;;;9.71;57.84;99128.13;5023937;28;8954;-75
2023/04/21 05:07:37;;;;;;;;;56.75;47.50;;;;;9.83;57.75;99121.72;5049054;28;8865;-75
2023/04/21 05:10:06;;;;;;;;;63.00;49.00;;;;;10.20;56.68;99126.03;5050278;28;8872;-75
2023/04/21 05:12:35;;;;;;;;;58.25;47.75;;;;;10.18;55.94;99120.81;5090268;28;8944;-74
2023/04/21 05:15:05;;;;;;;;;60.00;46.25;;;;;10.51;55.07;99128.69;5060320;28;9581;-76
2023/04/21 05:17:34;;;;;;;;;56.25;42.50;;;;;9.94;56.67;99135.44;5025468;28;8885;-74
2023/04/21 05:20:04;;;;;;;;;61.00;49.00;;;;;10.51;55.64;99127.84;5095012;28;8850;-73
2023/04/21 05:22:38;;;;;;;;;59.25;48.50;;;;;10.25;56.35;99137.28;5043972;28;8856;-74
2023/04/21 05:25:10;;;;;;;;;50.50;42.50;;;;;10.07;55.87;99138.63;5091097;28;9301;-73
2023/04/21 05:27:38;;;;;;;;;54.50;45.75;;;;;10.44;54.98;99129.75;5091518;28;8853;-76
2023/04/21 05:30:09;;;;;;;;;54.75;45.00;;;;;10.55;54.19;99122.44;5110204;28;8855;-73
2023/04/21 05:32:38;;;;;;;;;38.50;36.25;;;;;10.82;53.09;99119.97;5089885;28;8842;-75
2023/04/21 05:35:08;;;;;;;;;51.00;42.75;;;;;10.43;54.45;99132.44;5089260;28;8889;-74
2023/04/21 05:37:38;;;;;;;;;52.00;41.00;;;;;10.84;53.19;99125.19;5109543;28;8854;-76
2023/04/21 05:40:07;;;;;;;;;56.50;45.50;;;;;10.96;53.01;99127.47;5090806;28;8859;-73
2023/04/21 05:42:36;;;;;;;;;52.00;42.75;;;;;10.79;53.14;99128.81;5090891;28;8870;-73
2023/04/21 05:45:06;;;;;;;;;56.25;44.25;;;;;11.24;52.40;99129.25;5089997;28;9418;-74
2023/04/21 05:47:36;;;;;;;;;49.50;43.00;;;;;11.40;50.62;99135.78;5089293;28;8838;-74
2023/04/21 05:50:06;;;;;;;;;54.00;42.50;;;;;10.80;52.27;99137.56;5089026;28;8834;-73
2023/04/21 05:52:36;;;;;;;;;46.00;41.25;;;;;11.19;50.87;99134.69;5089975;28;8894;-73
2023/04/21 05:55:07;;;;;;;;;49.75;40.25;;;;;10.09;53.72;99144.69;5107466;28;8853;-74
2023/04/21 05:57:36;;;;;;;;;45.75;38.50;;;;;9.73;54.34;99138.59;5109420;28;8855;-74
2023/04/21 06:00:07;;;;;;;;;45.00;38.75;;;;;10.38;53.88;99135.19;5091174;28;9616;-77
2023/04/21 06:02:36;;;;;;;;;42.00;37.00;;;;;10.87;51.78;99128.59;5021055;28;8915;-75
2023/04/21 06:05:05;;;;;;;;;46.75;40.00;;;;;11.32;50.91;99122.03;5088951;28;8862;-72
2023/04/21 06:07:37;;;;;;;;;44.25;38.75;;;;;10.29;51.50;99132.81;5092695;28;8932;-72
2023/04/21 06:10:08;;;;;;;;;38.00;36.75;;;;;9.58;52.97;99127.56;5100515;28;8870;-75
2023/04/21 06:12:37;;;;;;;;;37.00;34.00;;;;;9.52;53.24;99129.44;5090056;28;8838;-73
2023/04/21 06:15:07;;;;;;;;;42.50;36.75;;;;;9.72;53.48;99137.72;5089124;28;9046;-77
2023/04/21 06:17:36;;;;;;;;;42.50;38.75;;;;;9.63;54.12;99137.97;5037103;28;8885;-75
2023/04/21 06:20:06;;;;;;;;;38.50;36.00;;;;;9.46;52.85;99146.19;5033903;28;8858;-77
2023/04/21 06:22:35;;;;;;;;;39.00;31.00;;;;;9.24;53.41;99144.03;5021431;28;8865;-74
2023/04/21 06:25:04;;;;;;;;;42.25;36.00;;;;;9.37;53.14;99149.03;5040054;28;8996;-74
2023/04/21 06:27:34;;;;;;;;;37.00;36.75;;;;;9.61;52.29;99143.25;5028781;28;8846;-77
2023/04/21 06:30:04;;;;;;;;;46.75;40.00;;;;;9.67;52.36;99133.47;5046225;28;8858;-74
2023/04/21 06:32:33;;;;;;;;;33.50;32.00;;;;;9.18;51.65;99140.69;5012481;28;8862;-75
2023/04/21 06:35:05;;;;;;;;;33.50;30.25;;;;;9.53;52.14;99144.28;5045657;28;8857;-77
2023/04/21 06:37:34;;;;;;;;;43.50;40.00;;;;;9.92;51.93;99141.63;5029083;28;8850;-75
2023/04/21 06:40:03;;;;;;;;;35.75;33.50;;;;;9.47;50.79;99145.28;5028846;28;8858;-75
2023/04/21 06:42:32;;;;;;;;;39.25;34.00;;;;;9.45;50.83;99141.81;5028760;28;8888;-71
2023/04/21 06:45:03;;;;;;;;;44.75;38.50;;;;;9.46;51.73;99142.69;5028961;28;8944;-74
2023/04/21 06:47:32;;;;;;;;;52.25;42.50;;;;;9.59;51.46;99139.78;5045277;28;8956;-72
2023/04/21 06:50:01;;;;;;;;;47.75;38.75;;;;;9.91;51.60;99139.91;5045319;28;8897;-73
2023/04/21 06:52:30;;;;;;;;;47.25;41.25;;;;;10.12;51.46;99139.38;5088327;28;8950;-72
2023/04/21 06:54:59;;;;;;;;;51.25;41.50;;;;;10.19;51.84;99145.31;5088461;28;8858;-72
2023/04/21 06:57:28;;;;;;;;;43.50;38.25;;;;;10.66;49.61;99137.06;5088370;28;8916;-72
2023/04/21 06:59:57;;;;;;;;;52.25;43.00;;;;;10.49;50.83;99145.41;5055543;28;8848;-74
2023/04/21 07:02:27;;;;;;;;;53.25;44.00;;;;;10.73;50.56;99146.50;5107006;28;9008;-73
2023/04/21 07:04:56;;;;;;;;;46.00;38.75;;;;;10.72;50.68;99150.03;5087899;28;9091;-74
2023/04/21 07:07:25;;;;;;;;;45.25;40.50;;;;;10.71;49.45;99149.19;5088033;28;8858;-72
2023/04/21 07:09:54;;;;;;;;;39.75;36.00;;;;;10.50;51.01;99148.00;5088033;28;9019;-74
2023/04/21 07:12:23;;;;;;;;;53.25;42.00;;;;;10.70;50.70;99139.56;5087927;28;8838;-72
2023/04/21 07:14:52;;;;;;;;;42.75;38.50;;;;;10.88;50.86;99138.22;5089412;28;8832;-73
2023/04/21 07:17:20;;;;;;;;;45.75;40.00;;;;;10.88;50.60;99142.59;5089985;28;8852;-73
2023/04/21 07:19:51;;;;;;;;;45.25;38.75;;;;;10.75;50.68;99139.47;5075300;28;8862;-72
2023/04/21 07:22:19;;;;;;;;;44.00;38.75;;;;;11.10;49.90;99137.59;5090693;28;9656;-75
2023/04/21 07:24:48;;;;;;;;;28.00;27.00;;;;;11.75;46.46;99139.09;5115657;28;8861;-72
2023/04/21 07:27:18;;;;;;;;;41.75;36.50;;;;;12.05;47.74;99134.63;5091976;28;8862;-75
2023/04/21 07:29:47;;;;;;;;;48.25;40.25;;;;;12.25;48.36;99141.84;5088422;28;8845;-73
2023/04/21 07:32:16;;;;;;;;;45.00;39.75;;;;;12.68;47.51;99137.69;5078313;28;8866;-76
2023/04/21 07:34:45;;;;;;;;;53.00;41.00;;;;;12.76;46.95;99139.19;5081787;28;8845;-75
2023/04/21 07:37:16;;;;;;;;;54.75;43.75;;;;;12.99;46.89;99133.94;5093701;28;8876;-74
2023/04/21 07:39:45;;;;;;;;;43.00;37.00;;;;;12.49;47.80;99145.41;5050433;28;8879;-71
2023/04/21 07:42:13;;;;;;;;;37.25;35.00;;;;;12.98;46.29;99149.84;5078637;28;8831;-74
2023/04/21 07:44:42;;;;;;;;;34.50;32.75;;;;;12.42;42.83;99153.56;5064550;28;8943;-71
2023/04/21 07:47:11;;;;;;;;;34.25;32.75;;;;;11.76;44.09;99161.88;5064045;28;8876;-69
2023/04/21 07:49:40;;;;;;;;;33.00;30.50;;;;;11.73;44.19;99162.84;5043607;28;8853;-74
2023/04/21 07:52:09;;;;;;;;;32.25;30.00;;;;;11.79;44.10;99156.50;5043907;28;8866;-70
2023/04/21 07:54:39;;;;;;;;;39.50;34.00;;;;;12.25;43.29;99154.16;5034639;28;8848;-71
2023/04/21 07:57:08;;;;;;;;;32.75;28.75;;;;;12.16;43.60;99152.69;5049932;28;8882;-71
2023/04/21 07:59:37;;;;;;;;;36.25;30.50;;;;;11.65;43.21;99164.84;5000305;28;8894;-69
2023/04/21 08:02:05;;;;;;;;;34.00;33.00;;;;;11.89;43.67;99157.97;5044211;28;8869;-71
2023/04/21 08:04:35;;;;;;;;;33.00;28.75;;;;;12.43;43.09;99152.66;5043834;28;8870;-70
2023/04/21 08:07:03;;;;;;;;;32.50;30.50;;;;;12.51;43.89;99162.03;5044209;28;8885;-70
2023/04/21 08:09:33;;;;;;;;;29.75;28.75;;;;;12.41;42.25;99168.53;5044249;28;8962;-71
2023/04/21 08:12:03;;;;;;;;;34.00;30.50;;;;;12.83;41.98;99157.38;5045940;28;8861;-70
2023/04/21 08:14:32;;;;;;;;;26.20;24.40;;;;;13.10;41.51;99159.94;5008593;28;8886;-71
2023/04/21 08:17:01;;;;;;;;;31.00;28.00;;;;;12.88;41.22;99157.22;5014895;28;8995;-69
2023/04/21 08:19:29;;;;;;;;;22.00;21.00;;;;;12.63;42.02;99157.22;5012123;28;8868;-70
2023/04/21 08:21:58;;;;;;;;;28.00;26.00;;;;;12.10;43.13;99164.28;5055114;28;8844;-68
2023/04/21 08:24:27;;;;;;;;;28.60;27.20;;;;;12.12;43.30;99157.19;5035039;28;8852;-71
2023/04/21 08:26:56;;;;;;;;;26.80;24.80;;;;;11.85;43.32;99158.97;5068564;28;8949;-71
2023/04/21 08:29:26;;;;;;;;;32.40;29.20;;;;;12.06;43.25;99153.91;5028152;28;8845;-70
2023/04/21 08:31:55;;;;;;;;;22.00;19.60;;;;;12.49;43.38;99155.09;5028277;28;8899;-69
2023/04/21 08:34:24;;;;;;;;;28.40;26.40;;;;;12.72;42.36;99154.25;4995974;28;8930;-71
2023/04/21 08:36:55;;;;;;;;;29.75;27.00;;;;;12.88;42.05;99152.84;4992601;28;8878;-72
2023/04/21 08:39:24;;;;;;;;;25.80;22.80;;;;;13.36;40.02;99139.63;5024154;28;8880;-71
2023/04/21 08:41:53;;;;;;;;;28.60;25.80;;;;;13.63;39.01;99140.28;5012058;28;8879;-69
2023/04/21 08:44:22;;;;;;;;;25.80;23.20;;;;;14.01;38.01;99141.41;5028794;28;8844;-70
2023/04/21 08:46:53;;;;;;;;;22.20;20.20;;;;;14.29;36.29;99134.94;5066455;28;8913;-70
2023/04/21 08:49:24;;;;;;;;;21.40;17.60;;;;;14.75;36.02;99130.31;5068052;28;8852;-71
2023/04/21 08:51:52;;;;;;;;;23.80;22.20;;;;;15.14;36.20;99132.06;5067810;28;8867;-70
2023/04/21 08:54:22;;;;;;;;;25.20;23.20;;;;;14.98;33.66;99139.00;5067521;28;8883;-71
2023/04/21 08:56:50;;;;;;;;;25.80;22.00;;;;;14.31;34.79;99137.53;5067411;28;8863;-70
2023/04/21 08:59:26;;;;;;;;;21.00;20.20;;;;;13.91;35.34;99139.22;5067879;28;8852;-70
2023/04/21 09:02:10;;;;;;;;;21.00;20.00;;;;;14.07;34.67;99130.59;5090246;28;8858;-70
2023/04/21 09:04:40;;;;;;;;;21.80;19.40;;;;;13.28;35.69;99146.03;5055047;28;8930;-70
2023/04/21 09:07:10;;;;;;;;;20.00;17.00;;;;;13.35;35.10;99133.44;5090056;28;10035;-70
2023/04/21 09:09:52;;;;;;;;;14.80;14.00;;;;;14.18;34.21;99126.63;5090835;28;8943;-72
2023/04/21 09:12:21;;;;;;;;;17.40;17.20;;;;;14.10;33.03;99129.59;5091164;28;8889;-69
2023/04/21 09:14:51;;;;;;;;;18.80;17.20;;;;;13.53;34.14;99134.53;5090439;28;8873;-68
2023/04/21 09:17:22;;;;;;;;;17.20;17.00;;;;;13.92;34.58;99131.19;5072040;28;8866;-70
2023/04/21 09:19:52;;;;;;;;;20.60;19.60;;;;;13.78;33.93;99130.91;5090342;28;8854;-69
2023/04/21 09:22:21;;;;;;;;;14.40;14.40;;;;;13.42;34.17;99129.66;5037949;28;8992;-71
2023/04/21 09:24:58;;;;;;;;;15.00;15.00;;;;;13.74;33.30;99124.88;5089448;28;8830;-70
2023/04/21 09:27:28;;;;;;;;;15.00;14.40;;;;;14.41;33.30;99105.34;5089975;28;8858;-70
2023/04/21 09:30:03;;;;;;;;;16.20;15.20;;;;;14.62;32.24;99119.41;5089605;28;8862;-71
2023/04/21 09:32:38;;;;;;;;;15.00;14.40;;;;;14.49;31.36;99123.53;5093904;28;8986;-70
2023/04/21 09:35:09;;;;;;;;;14.00;11.60;;;;;14.96;30.70;99107.31;5103767;28;8903;-70
2023/04/21 09:37:39;;;;;;;;;15.80;15.60;;;;;15.46;30.72;99100.56;5098557;28;8851;-68
2023/04/21 09:40:13;;;;;;;;;18.60;15.00;;;;;14.97;31.61;99103.72;5104457;28;8838;-71
2023/04/21 09:42:41;;;;;;;;;12.80;12.00;;;;;15.48;29.63;99116.38;5090070;28;8845;-70
2023/04/21 09:45:13;;;;;;;;;13.60;12.20;;;;;15.73;29.32;99103.69;5089726;28;8822;-69
2023/04/21 09:47:51;;;;;;;;;12.60;12.40;;;;;15.13;29.48;99121.53;5070982;28;8938;-69
2023/04/21 09:50:21;;;;;;;;;19.00;14.80;;;;;14.68;30.49;99108.53;5071594;28;8838;-70
2023/04/21 09:53:15;;;;;;;;;17.40;16.40;;;;;14.26;31.29;99108.63;5089636;28;8967;-69
2023/04/21 09:55:49;;;;;;;;;13.80;13.80;;;;;14.27;31.62;99107.72;5076764;28;8856;-70
2023/04/21 09:58:22;;;;;;;;;8.00;8.00;;;;;14.64;30.52;99106.97;5058810;28;8840;-71
2023/04/21 10:00:56;;;;;;;;;13.20;12.80;;;;;14.90;29.68;99096.16;5109759;28;8866;-69
2023/04/21 10:03:28;;;;;;;;;14.20;12.60;;;;;14.64;30.10;99100.78;5056946;28;8917;-70
2023/04/21 10:05:58;;;;;;;;;12.80;10.60;;;;;15.11;29.41;99089.84;5109367;28;8859;-68
2023/04/21 10:08:27;;;;;;;;;13.20;12.20;;;;;15.42;29.28;99104.28;5109265;28;8867;-69
2023/04/21 10:10:57;;;;;;;;;12.80;12.80;;;;;15.25;29.47;99108.59;5056973;28;8909;-70
2023/04/21 10:13:26;;;;;;;;;13.20;13.20;;;;;14.56;30.06;99097.63;5109413;28;8871;-69
2023/04/21 10:16:03;;;;;;;;;12.60;11.60;;;;;15.21;30.23;99093.78;5091051;28;8867;-69
2023/04/21 10:18:36;;;;;;;;;13.80;12.60;;;;;15.61;30.16;99096.34;5109064;28;9605;-69
2023/04/21 10:21:08;;;;;;;;;15.60;12.40;;;;;16.01;29.45;99086.41;5090766;28;8859;-70
2023/04/21 10:23:38;;;;;;;;;13.40;12.00;;;;;16.37;28.79;99085.44;5060040;28;8880;-71
2023/04/21 10:26:10;;;;;;;;;14.20;11.80;;;;;16.46;28.73;99076.19;5088625;28;8878;-71
2023/04/21 10:28:43;;;;;;;;;14.40;13.80;;;;;16.77;28.51;99078.88;5104933;28;8839;-70
2023/04/21 10:31:24;;;;;;;;;17.60;14.40;;;;;16.60;28.44;99071.84;5108806;28;8878;-70
2023/04/21 10:34:16;;;;;;;;;11.40;10.80;;;;;15.23;30.00;99085.78;5090287;28;8860;-70
2023/04/21 10:37:11;;;;;;;;;12.60;11.60;;;;;15.49;29.52;99087.19;5024856;28;8852;-68
2023/04/21 10:39:47;;;;;;;;;15.40;14.20;;;;;15.84;29.40;99082.78;5025402;28;8857;-69
2023/04/21 10:42:33;;;;;;;;;15.60;15.00;;;;;16.01;29.55;99081.09;5009158;28;8888;-68
2023/04/21 10:45:12;;;;;;;;;15.20;15.00;;;;;15.42;29.90;99080.47;5025359;28;9680;-69
2023/04/21 10:47:50;;;;;;;;;12.00;12.00;;;;;15.05;30.80;99075.09;4992665;28;8864;-68
2023/04/21 10:50:28;;;;;;;;;13.40;13.00;;;;;14.65;31.21;99078.72;4982289;28;8870;-69
2023/04/21 10:53:07;;;;;;;;;14.20;14.20;;;;;15.44;31.05;99082.09;4966722;28;8868;-70
2023/04/21 10:55:36;;;;;;;;;15.40;14.60;;;;;16.06;30.04;99057.88;4950577;28;8877;-69
2023/04/21 10:58:08;;;;;;;;;11.60;11.60;;;;;16.63;29.54;99057.56;4966407;28;8880;-69
2023/04/21 11:00:38;;;;;;;;;54.00;42.25;;;;;16.36;29.88;99059.84;4965704;28;8904;-68
2023/04/21 11:03:08;;;;;;;;;41.00;35.00;;;;;16.53;30.09;99059.84;4966492;28;8884;-67
2023/04/21 11:05:39;;;;;;;;;42.50;35.75;;;;;17.27;29.84;99052.31;4966119;28;8873;-69
2023/04/21 11:08:12;;;;;;;;;16.40;15.80;;;;;17.80;28.79;99050.16;4966107;28;8899;-71
2023/04/21 11:10:50;;;;;;;;;18.00;15.40;;;;;17.74;28.23;99046.94;4965968;28;8864;-70
2023/04/21 11:13:22;;;;;;;;;15.00;14.80;;;;;16.34;30.29;99059.94;4988547;28;9057;-69
2023/04/21 11:16:01;;;;;;;;;14.40;13.60;;;;;17.35;28.75;99063.38;5044787;28;8902;-70
2023/04/21 11:18:38;;;;;;;;;17.40;13.60;;;;;17.79;27.40;99046.63;5044354;28;8854;-70
2023/04/21 11:21:09;;;;;;;;;16.40;13.00;;;;;18.11;27.48;99055.38;5044674;28;8897;-69
2023/04/21 11:23:42;;;;;;;;;13.20;12.20;;;;;17.86;27.29;99055.13;5044712;28;8874;-70
2023/04/21 11:26:10;;;;;;;;;14.20;14.20;;;;;17.91;26.67;99063.66;5044905;28;8870;-69
2023/04/21 11:28:40;;;;;;;;;11.60;11.00;;;;;18.21;27.01;99049.53;5092435;28;8855;-69
2023/04/21 11:31:09;;;;;;;;;15.40;14.00;;;;;18.53;26.72;99063.50;5108081;28;8843;-69
2023/04/21 11:33:39;;;;;;;;;18.20;14.80;;;;;18.76;26.07;99062.06;5107585;28;8938;-70
2023/04/21 11:36:09;;;;;;;;;12.80;11.80;;;;;19.06;25.34;99064.63;5051678;28;8897;-71
2023/04/21 11:38:39;;;;;;;;;11.60;11.60;;;;;19.08;24.68;99057.44;5069066;28;8838;-70
2023/04/21 11:41:09;;;;;;;;;12.20;12.20;;;;;18.96;23.93;99074.19;5087386;28;8878;-68